sensor_id;sensor_type;location;lat;lon;timestamp;temperature;humidity
17053;DHT22;8643;48.824;11.422;2023-04-03T00:01:38;3.40;99.90
17053;DHT22;8643;48.824;11.422;2023-04-03T00:04:07;3.40;99.90
17053;DHT22;8643;48.824;11.422;2023-04-03T00:06:36;3.40;99.90
17053;DHT22;8643;48.824;11.422;2023-04-03T00:11:37;4.20;99.90
17053;DHT22;8643;48.824;11.422;2023-04-03T00:16:35;3.40;99.90
17053;DHT22;8643;48.824;11.422;2023-04-03T00:19:03;3.40;99.90
17053;DHT22;8643;48.824;11.422;2023-04-03T00:21:32;3.40;99.90
17053;DHT22;8643;48.824;11.422;2023-04-03T00:24:00;3.40;99.90
17053;DHT22;8643;48.824;11.422;2023-04-03T00:26:29;3.30;99.90
17053;DHT22;8643;48.824;11.422;2023-04-03T00:28:59;3.30;99.90
17053;DHT22;8643;48.824;11.422;2023-04-03T00:31:27;2.50;99.90
17053;DHT22;8643;48.824;11.422;2023-04-03T00:38:55;3.20;99.90
17053;DHT22;8643;48.824;11.422;2023-04-03T00:41:23;3.20;99.90
17053;DHT22;8643;48.824;11.422;2023-04-03T00:43:52;3.20;99.90
17053;DHT22;8643;48.824;11.422;2023-04-03T00:46:23;3.20;99.90
17053;DHT22;8643;48.824;11.422;2023-04-03T00:51:24;3.20;99.90
17053;DHT22;8643;48.824;11.422;2023-04-03T00:53:58;3.10;99.90
17053;DHT22;8643;48.824;11.422;2023-04-03T00:56:30;3.20;99.90
17053;DHT22;8643;48.824;11.422;2023-04-03T00:59:04;3.20;99.90
17053;DHT22;8643;48.824;11.422;2023-04-03T01:01:36;3.10;99.90
17053;DHT22;8643;48.824;11.422;2023-04-03T01:04:05;3.10;99.90
17053;DHT22;8643;48.824;11.422;2023-04-03T01:06:55;3.10;99.90
17053;DHT22;8643;48.824;11.422;2023-04-03T01:09:28;3.10;99.90
17053;DHT22;8643;48.824;11.422;2023-04-03T01:12:13;3.20;99.90
17053;DHT22;8643;48.824;11.422;2023-04-03T01:14:46;3.10;99.90
17053;DHT22;8643;48.824;11.422;2023-04-03T01:17:30;3.10;99.90
17053;DHT22;8643;48.824;11.422;2023-04-03T01:20:36;3.10;99.90
17053;DHT22;8643;48.824;11.422;2023-04-03T01:23:32;3.00;99.90
17053;DHT22;8643;48.824;11.422;2023-04-03T01:26:14;3.00;99.90
17053;DHT22;8643;48.824;11.422;2023-04-03T01:28:42;3.00;99.90
17053;DHT22;8643;48.824;11.422;2023-04-03T01:31:18;3.10;99.90
17053;DHT22;8643;48.824;11.422;2023-04-03T01:33:55;3.00;99.90
17053;DHT22;8643;48.824;11.422;2023-04-03T01:36:25;3.10;99.90
17053;DHT22;8643;48.824;11.422;2023-04-03T01:38:58;3.00;99.90
17053;DHT22;8643;48.824;11.422;2023-04-03T01:41:29;3.00;99.90
17053;DHT22;8643;48.824;11.422;2023-04-03T01:44:06;3.00;99.90
17053;DHT22;8643;48.824;11.422;2023-04-03T01:46:35;4.10;99.90
17053;DHT22;8643;48.824;11.422;2023-04-03T01:49:05;3.00;99.90
17053;DHT22;8643;48.824;11.422;2023-04-03T01:51:35;3.00;99.90
17053;DHT22;8643;48.824;11.422;2023-04-03T01:54:03;3.10;99.90
17053;DHT22;8643;48.824;11.422;2023-04-03T01:56:33;3.00;99.90
17053;DHT22;8643;48.824;11.422;2023-04-03T01:59:02;3.00;99.90
17053;DHT22;8643;48.824;11.422;2023-04-03T02:01:31;3.00;99.90
17053;DHT22;8643;48.824;11.422;2023-04-03T02:03:59;3.00;99.90
17053;DHT22;8643;48.824;11.422;2023-04-03T02:06:30;3.00;99.90
17053;DHT22;8643;48.824;11.422;2023-04-03T02:13:56;3.00;99.90
17053;DHT22;8643;48.824;11.422;2023-04-03T02:16:24;3.00;99.90
17053;DHT22;8643;48.824;11.422;2023-04-03T02:18:53;3.10;99.90
17053;DHT22;8643;48.824;11.422;2023-04-03T02:21:22;2.90;99.90
17053;DHT22;8643;48.824;11.422;2023-04-03T02:23:52;3.00;99.90
17053;DHT22;8643;48.824;11.422;2023-04-03T02:26:20;3.00;99.90
17053;DHT22;8643;48.824;11.422;2023-04-03T02:31:18;3.00;99.90
17053;DHT22;8643;48.824;11.422;2023-04-03T02:33:47;3.00;99.90
17053;DHT22;8643;48.824;11.422;2023-04-03T02:36:16;2.90;99.90
17053;DHT22;8643;48.824;11.422;2023-04-03T02:38:52;3.00;99.90
17053;DHT22;8643;48.824;11.422;2023-04-03T02:41:20;2.90;99.90
17053;DHT22;8643;48.824;11.422;2023-04-03T02:43:50;3.20;99.90
17053;DHT22;8643;48.824;11.422;2023-04-03T02:46:19;2.90;99.90
17053;DHT22;8643;48.824;11.422;2023-04-03T02:48:47;2.90;99.90
17053;DHT22;8643;48.824;11.422;2023-04-03T02:51:15;2.90;99.90
17053;DHT22;8643;48.824;11.422;2023-04-03T02:56:19;2.90;99.90
17053;DHT22;8643;48.824;11.422;2023-04-03T02:58:48;2.80;99.90
17053;DHT22;8643;48.824;11.422;2023-04-03T03:01:18;2.80;99.90
17053;DHT22;8643;48.824;11.422;2023-04-03T03:03:47;2.80;99.90
17053;DHT22;8643;48.824;11.422;2023-04-03T03:06:17;2.80;99.90
17053;DHT22;8643;48.824;11.422;2023-04-03T03:08:45;2.80;99.90
17053;DHT22;8643;48.824;11.422;2023-04-03T03:11:14;2.80;99.90
17053;DHT22;8643;48.824;11.422;2023-04-03T03:13:44;2.80;99.90
17053;DHT22;8643;48.824;11.422;2023-04-03T03:16:12;2.70;99.90
17053;DHT22;8643;48.824;11.422;2023-04-03T03:21:10;2.70;99.90
17053;DHT22;8643;48.824;11.422;2023-04-03T03:23:39;2.70;99.90
17053;DHT22;8643;48.824;11.422;2023-04-03T03:26:09;1.70;99.90
17053;DHT22;8643;48.824;11.422;2023-04-03T03:28:39;2.70;99.90
17053;DHT22;8643;48.824;11.422;2023-04-03T03:31:09;2.60;99.90
17053;DHT22;8643;48.824;11.422;2023-04-03T03:33:40;2.70;99.90
17053;DHT22;8643;48.824;11.422;2023-04-03T03:36:08;2.70;99.90
17053;DHT22;8643;48.824;11.422;2023-04-03T03:38:37;2.60;99.90
17053;DHT22;8643;48.824;11.422;2023-04-03T03:41:06;2.60;99.90
17053;DHT22;8643;48.824;11.422;2023-04-03T03:43:35;2.60;99.90
17053;DHT22;8643;48.824;11.422;2023-04-03T03:46:05;2.60;99.90
17053;DHT22;8643;48.824;11.422;2023-04-03T03:48:35;2.60;99.90
17053;DHT22;8643;48.824;11.422;2023-04-03T03:51:03;2.50;99.90
17053;DHT22;8643;48.824;11.422;2023-04-03T03:53:35;2.50;99.90
17053;DHT22;8643;48.824;11.422;2023-04-03T03:56:07;4.00;99.90
17053;DHT22;8643;48.824;11.422;2023-04-03T03:58:37;2.50;99.90
17053;DHT22;8643;48.824;11.422;2023-04-03T04:01:07;2.50;99.90
17053;DHT22;8643;48.824;11.422;2023-04-03T04:03:43;2.40;99.90
17053;DHT22;8643;48.824;11.422;2023-04-03T04:06:16;2.40;99.90
17053;DHT22;8643;48.824;11.422;2023-04-03T04:08:45;2.40;99.90
17053;DHT22;8643;48.824;11.422;2023-04-03T04:11:14;2.30;99.90
17053;DHT22;8643;48.824;11.422;2023-04-03T04:13:45;2.40;99.90
17053;DHT22;8643;48.824;11.422;2023-04-03T04:16:15;2.20;99.90
17053;DHT22;8643;48.824;11.422;2023-04-03T04:18:45;2.30;99.90
17053;DHT22;8643;48.824;11.422;2023-04-03T04:23:44;2.30;99.90
17053;DHT22;8643;48.824;11.422;2023-04-03T04:26:14;2.30;99.90
17053;DHT22;8643;48.824;11.422;2023-04-03T04:28:43;3.40;99.90
17053;DHT22;8643;48.824;11.422;2023-04-03T04:31:11;2.30;99.90
17053;DHT22;8643;48.824;11.422;2023-04-03T04:33:40;2.30;99.90
17053;DHT22;8643;48.824;11.422;2023-04-03T04:36:12;2.30;99.90
17053;DHT22;8643;48.824;11.422;2023-04-03T04:38:44;2.30;99.90
17053;DHT22;8643;48.824;11.422;2023-04-03T04:41:13;2.30;99.90
17053;DHT22;8643;48.824;11.422;2023-04-03T04:46:12;2.30;99.90
17053;DHT22;8643;48.824;11.422;2023-04-03T04:48:46;2.30;99.90
17053;DHT22;8643;48.824;11.422;2023-04-03T04:51:18;2.30;99.90
17053;DHT22;8643;48.824;11.422;2023-04-03T04:53:47;2.40;99.90
17053;DHT22;8643;48.824;11.422;2023-04-03T04:56:17;2.40;99.90
17053;DHT22;8643;48.824;11.422;2023-04-03T04:58:46;2.40;99.90
17053;DHT22;8643;48.824;11.422;2023-04-03T05:01:16;2.40;99.90
17053;DHT22;8643;48.824;11.422;2023-04-03T05:06:27;2.40;99.90
17053;DHT22;8643;48.824;11.422;2023-04-03T05:11:30;2.40;99.90
17053;DHT22;8643;48.824;11.422;2023-04-03T05:13:58;2.40;99.90
17053;DHT22;8643;48.824;11.422;2023-04-03T05:16:28;2.40;99.90
17053;DHT22;8643;48.824;11.422;2023-04-03T05:21:31;2.50;99.90
17053;DHT22;8643;48.824;11.422;2023-04-03T05:24:06;2.50;99.90
17053;DHT22;8643;48.824;11.422;2023-04-03T05:31:38;2.50;99.90
17053;DHT22;8643;48.824;11.422;2023-04-03T05:34:09;3.00;99.90
17053;DHT22;8643;48.824;11.422;2023-04-03T05:36:41;2.50;99.90
17053;DHT22;8643;48.824;11.422;2023-04-03T05:39:15;2.50;99.90
17053;DHT22;8643;48.824;11.422;2023-04-03T05:41:46;2.60;99.90
17053;DHT22;8643;48.824;11.422;2023-04-03T05:44:14;2.70;99.90
17053;DHT22;8643;48.824;11.422;2023-04-03T05:46:45;2.70;99.90
17053;DHT22;8643;48.824;11.422;2023-04-03T05:49:14;2.70;99.90
17053;DHT22;8643;48.824;11.422;2023-04-03T05:51:45;2.70;99.90
17053;DHT22;8643;48.824;11.422;2023-04-03T05:54:24;2.70;99.90
17053;DHT22;8643;48.824;11.422;2023-04-03T05:57:01;2.70;99.90
17053;DHT22;8643;48.824;11.422;2023-04-03T06:01:59;2.80;99.90
17053;DHT22;8643;48.824;11.422;2023-04-03T06:04:29;2.70;99.90
17053;DHT22;8643;48.824;11.422;2023-04-03T06:06:59;2.80;99.90
17053;DHT22;8643;48.824;11.422;2023-04-03T06:09:28;2.90;99.90
17053;DHT22;8643;48.824;11.422;2023-04-03T06:11:58;2.80;99.90
17053;DHT22;8643;48.824;11.422;2023-04-03T06:14:28;2.90;99.90
17053;DHT22;8643;48.824;11.422;2023-04-03T06:16:57;2.90;99.90
17053;DHT22;8643;48.824;11.422;2023-04-03T06:19:26;3.00;99.90
17053;DHT22;8643;48.824;11.422;2023-04-03T06:21:56;3.00;99.90
17053;DHT22;8643;48.824;11.422;2023-04-03T06:24:27;2.80;99.90
17053;DHT22;8643;48.824;11.422;2023-04-03T06:26:56;3.00;99.90
17053;DHT22;8643;48.824;11.422;2023-04-03T06:29:25;3.10;99.90
17053;DHT22;8643;48.824;11.422;2023-04-03T06:31:53;3.20;99.90
17053;DHT22;8643;48.824;11.422;2023-04-03T06:34:22;3.20;99.90
17053;DHT22;8643;48.824;11.422;2023-04-03T06:36:50;3.30;99.90
17053;DHT22;8643;48.824;11.422;2023-04-03T06:39:22;3.30;99.90
17053;DHT22;8643;48.824;11.422;2023-04-03T06:44:27;3.30;99.90
17053;DHT22;8643;48.824;11.422;2023-04-03T06:46:56;3.30;99.90
17053;DHT22;8643;48.824;11.422;2023-04-03T06:54:23;3.50;99.90
17053;DHT22;8643;48.824;11.422;2023-04-03T06:56:52;3.50;99.90
17053;DHT22;8643;48.824;11.422;2023-04-03T06:59:20;3.60;99.90
17053;DHT22;8643;48.824;11.422;2023-04-03T07:01:49;3.50;99.90
17053;DHT22;8643;48.824;11.422;2023-04-03T07:06:48;4.40;99.90
17053;DHT22;8643;48.824;11.422;2023-04-03T07:09:16;3.80;99.90
17053;DHT22;8643;48.824;11.422;2023-04-03T07:11:46;3.80;99.90
17053;DHT22;8643;48.824;11.422;2023-04-03T07:14:15;3.90;99.90
17053;DHT22;8643;48.824;11.422;2023-04-03T07:16:43;3.90;99.90
17053;DHT22;8643;48.824;11.422;2023-04-03T07:19:11;3.90;99.90
17053;DHT22;8643;48.824;11.422;2023-04-03T07:21:40;4.00;99.90
17053;DHT22;8643;48.824;11.422;2023-04-03T07:24:10;4.00;99.90
17053;DHT22;8643;48.824;11.422;2023-04-03T07:26:42;4.10;99.90
17053;DHT22;8643;48.824;11.422;2023-04-03T07:29:13;4.20;99.90
17053;DHT22;8643;48.824;11.422;2023-04-03T07:31:42;4.20;99.90
17053;DHT22;8643;48.824;11.422;2023-04-03T07:34:11;4.30;99.90
17053;DHT22;8643;48.824;11.422;2023-04-03T07:36:40;4.40;99.90
17053;DHT22;8643;48.824;11.422;2023-04-03T07:41:38;4.50;99.90
17053;DHT22;8643;48.824;11.422;2023-04-03T07:46:38;4.70;99.90
17053;DHT22;8643;48.824;11.422;2023-04-03T07:49:07;4.70;99.90
17053;DHT22;8643;48.824;11.422;2023-04-03T07:51:36;4.70;99.90
17053;DHT22;8643;48.824;11.422;2023-04-03T07:54:04;4.70;99.90
17053;DHT22;8643;48.824;11.422;2023-04-03T07:56:33;4.00;99.90
17053;DHT22;8643;48.824;11.422;2023-04-03T07:59:02;4.70;99.90
17053;DHT22;8643;48.824;11.422;2023-04-03T08:04:01;4.80;99.90
17053;DHT22;8643;48.824;11.422;2023-04-03T08:06:31;4.90;99.90
17053;DHT22;8643;48.824;11.422;2023-04-03T08:09:12;5.10;99.90
17053;DHT22;8643;48.824;11.422;2023-04-03T08:11:42;5.20;99.90
17053;DHT22;8643;48.824;11.422;2023-04-03T08:14:11;5.30;99.90
17053;DHT22;8643;48.824;11.422;2023-04-03T08:16:44;5.20;99.90
17053;DHT22;8643;48.824;11.422;2023-04-03T08:19:15;5.40;99.90
17053;DHT22;8643;48.824;11.422;2023-04-03T08:24:22;5.60;99.90
17053;DHT22;8643;48.824;11.422;2023-04-03T08:26:51;5.70;99.90
17053;DHT22;8643;48.824;11.422;2023-04-03T08:29:19;5.70;99.90
17053;DHT22;8643;48.824;11.422;2023-04-03T08:31:48;5.60;99.90
17053;DHT22;8643;48.824;11.422;2023-04-03T08:34:19;5.70;99.90
17053;DHT22;8643;48.824;11.422;2023-04-03T08:36:48;5.80;99.90
17053;DHT22;8643;48.824;11.422;2023-04-03T08:39:17;4.20;99.90
17053;DHT22;8643;48.824;11.422;2023-04-03T08:41:46;6.10;99.90
17053;DHT22;8643;48.824;11.422;2023-04-03T08:44:21;6.30;99.90
17053;DHT22;8643;48.824;11.422;2023-04-03T08:47:02;6.30;99.90
17053;DHT22;8643;48.824;11.422;2023-04-03T08:49:42;6.40;99.90
17053;DHT22;8643;48.824;11.422;2023-04-03T08:52:17;6.60;99.90
17053;DHT22;8643;48.824;11.422;2023-04-03T08:54:50;6.90;99.90
17053;DHT22;8643;48.824;11.422;2023-04-03T08:57:28;7.00;99.90
17053;DHT22;8643;48.824;11.422;2023-04-03T09:00:11;7.10;99.90
17053;DHT22;8643;48.824;11.422;2023-04-03T09:02:47;7.30;99.90
17053;DHT22;8643;48.824;11.422;2023-04-03T09:05:33;7.40;99.90
17053;DHT22;8643;48.824;11.422;2023-04-03T09:08:21;7.40;99.90
17053;DHT22;8643;48.824;11.422;2023-04-03T09:11:00;8.00;99.90
17053;DHT22;8643;48.824;11.422;2023-04-03T09:13:45;7.40;99.90
17053;DHT22;8643;48.824;11.422;2023-04-03T09:16:27;7.30;99.90
17053;DHT22;8643;48.824;11.422;2023-04-03T09:19:13;7.40;99.90
17053;DHT22;8643;48.824;11.422;2023-04-03T09:21:48;7.50;99.90
17053;DHT22;8643;48.824;11.422;2023-04-03T09:24:17;7.60;99.90
17053;DHT22;8643;48.824;11.422;2023-04-03T09:26:54;7.70;99.90
17053;DHT22;8643;48.824;11.422;2023-04-03T09:29:27;7.70;99.90
17053;DHT22;8643;48.824;11.422;2023-04-03T09:31:59;7.50;99.90
17053;DHT22;8643;48.824;11.422;2023-04-03T09:34:31;7.50;98.10
17053;DHT22;8643;48.824;11.422;2023-04-03T09:37:04;7.50;97.20
17053;DHT22;8643;48.824;11.422;2023-04-03T09:39:50;7.30;96.00
17053;DHT22;8643;48.824;11.422;2023-04-03T09:42:24;7.20;94.30
17053;DHT22;8643;48.824;11.422;2023-04-03T09:44:55;7.10;94.10
17053;DHT22;8643;48.824;11.422;2023-04-03T09:47:25;6.80;93.80
17053;DHT22;8643;48.824;11.422;2023-04-03T09:50:17;6.60;94.70
17053;DHT22;8643;48.824;11.422;2023-04-03T09:52:52;6.50;96.70
17053;DHT22;8643;48.824;11.422;2023-04-03T09:55:22;6.50;99.20
17053;DHT22;8643;48.824;11.422;2023-04-03T09:57:58;6.50;98.20
17053;DHT22;8643;48.824;11.422;2023-04-03T10:00:33;6.90;99.70
17053;DHT22;8643;48.824;11.422;2023-04-03T10:03:04;6.50;98.60
17053;DHT22;8643;48.824;11.422;2023-04-03T10:05:51;6.30;96.90
17053;DHT22;8643;48.824;11.422;2023-04-03T10:08:26;6.20;96.70
17053;DHT22;8643;48.824;11.422;2023-04-03T10:11:12;6.20;98.40
17053;DHT22;8643;48.824;11.422;2023-04-03T10:13:54;5.00;95.00
17053;DHT22;8643;48.824;11.422;2023-04-03T10:16:32;6.30;97.70
17053;DHT22;8643;48.824;11.422;2023-04-03T10:22:21;6.90;95.70
17053;DHT22;8643;48.824;11.422;2023-04-03T10:25:10;7.20;96.70
17053;DHT22;8643;48.824;11.422;2023-04-03T10:27:49;7.80;94.50
17053;DHT22;8643;48.824;11.422;2023-04-03T10:30:38;8.20;91.10
17053;DHT22;8643;48.824;11.422;2023-04-03T10:33:34;9.20;91.40
17053;DHT22;8643;48.824;11.422;2023-04-03T10:36:16;10.10;85.10
17053;DHT22;8643;48.824;11.422;2023-04-03T10:38:59;9.70;76.00
17053;DHT22;8643;48.824;11.422;2023-04-03T10:41:47;9.00;78.90
17053;DHT22;8643;48.824;11.422;2023-04-03T10:44:58;8.30;81.20
17053;DHT22;8643;48.824;11.422;2023-04-03T10:47:42;7.80;80.90
17053;DHT22;8643;48.824;11.422;2023-04-03T10:50:31;7.60;79.80
17053;DHT22;8643;48.824;11.422;2023-04-03T10:53:14;7.40;84.50
17053;DHT22;8643;48.824;11.422;2023-04-03T10:55:51;7.50;81.30
17053;DHT22;8643;48.824;11.422;2023-04-03T10:58:30;7.40;82.10
17053;DHT22;8643;48.824;11.422;2023-04-03T11:01:07;7.40;82.40
17053;DHT22;8643;48.824;11.422;2023-04-03T11:03:43;7.30;76.10
17053;DHT22;8643;48.824;11.422;2023-04-03T11:06:16;7.20;75.60
17053;DHT22;8643;48.824;11.422;2023-04-03T11:08:52;7.30;79.60
17053;DHT22;8643;48.824;11.422;2023-04-03T11:11:26;7.20;77.50
17053;DHT22;8643;48.824;11.422;2023-04-03T11:14:03;7.20;79.70
17053;DHT22;8643;48.824;11.422;2023-04-03T11:16:42;7.10;77.00
17053;DHT22;8643;48.824;11.422;2023-04-03T11:19:22;7.10;80.10
17053;DHT22;8643;48.824;11.422;2023-04-03T11:22:04;7.00;76.40
17053;DHT22;8643;48.824;11.422;2023-04-03T11:24:42;7.20;82.00
17053;DHT22;8643;48.824;11.422;2023-04-03T11:27:17;7.30;79.50
17053;DHT22;8643;48.824;11.422;2023-04-03T11:29:53;7.30;78.50
17053;DHT22;8643;48.824;11.422;2023-04-03T11:32:53;7.20;78.60
17053;DHT22;8643;48.824;11.422;2023-04-03T11:35:32;7.20;76.70
17053;DHT22;8643;48.824;11.422;2023-04-03T11:38:04;7.00;76.50
17053;DHT22;8643;48.824;11.422;2023-04-03T11:40:35;7.00;77.90
17053;DHT22;8643;48.824;11.422;2023-04-03T11:43:17;7.30;78.40
17053;DHT22;8643;48.824;11.422;2023-04-03T11:45:58;7.80;74.90
17053;DHT22;8643;48.824;11.422;2023-04-03T11:48:50;7.70;74.10
17053;DHT22;8643;48.824;11.422;2023-04-03T11:51:42;8.10;75.30
17053;DHT22;8643;48.824;11.422;2023-04-03T11:57:45;10.00;74.50
17053;DHT22;8643;48.824;11.422;2023-04-03T12:01:09;9.90;67.20
17053;DHT22;8643;48.824;11.422;2023-04-03T12:06:52;9.90;66.20
17053;DHT22;8643;48.824;11.422;2023-04-03T12:12:35;11.70;68.30
17053;DHT22;8643;48.824;11.422;2023-04-03T12:15:23;13.00;65.60
17053;DHT22;8643;48.824;11.422;2023-04-03T12:17:56;12.30;64.00
17053;DHT22;8643;48.824;11.422;2023-04-03T12:20:52;11.20;64.40
17053;DHT22;8643;48.824;11.422;2023-04-03T12:23:32;10.20;63.80
17053;DHT22;8643;48.824;11.422;2023-04-03T12:26:20;10.00;65.10
17053;DHT22;8643;48.824;11.422;2023-04-03T12:28:51;11.00;67.50
17053;DHT22;8643;48.824;11.422;2023-04-03T12:31:25;11.30;64.60
17053;DHT22;8643;48.824;11.422;2023-04-03T12:34:17;10.80;63.70
17053;DHT22;8643;48.824;11.422;2023-04-03T12:37:02;9.90;64.10
17053;DHT22;8643;48.824;11.422;2023-04-03T12:39:49;9.30;64.70
17053;DHT22;8643;48.824;11.422;2023-04-03T12:42:37;8.90;68.00
17053;DHT22;8643;48.824;11.422;2023-04-03T12:45:24;9.10;69.90
17053;DHT22;8643;48.824;11.422;2023-04-03T12:47:55;9.40;66.20
17053;DHT22;8643;48.824;11.422;2023-04-03T12:50:29;9.40;64.10
17053;DHT22;8643;48.824;11.422;2023-04-03T12:53:03;9.10;63.20
17053;DHT22;8643;48.824;11.422;2023-04-03T12:55:34;8.60;64.20
17053;DHT22;8643;48.824;11.422;2023-04-03T12:58:14;9.10;68.30
17053;DHT22;8643;48.824;11.422;2023-04-03T13:00:44;8.30;66.80
17053;DHT22;8643;48.824;11.422;2023-04-03T13:03:23;9.40;65.60
17053;DHT22;8643;48.824;11.422;2023-04-03T13:05:59;11.00;64.40
17053;DHT22;8643;48.824;11.422;2023-04-03T13:08:28;11.70;57.40
17053;DHT22;8643;48.824;11.422;2023-04-03T13:11:00;12.40;55.10
17053;DHT22;8643;48.824;11.422;2023-04-03T13:13:31;12.70;55.60
17053;DHT22;8643;48.824;11.422;2023-04-03T13:15:59;13.50;54.40
17053;DHT22;8643;48.824;11.422;2023-04-03T13:18:38;14.30;58.90
17053;DHT22;8643;48.824;11.422;2023-04-03T13:21:13;14.30;55.40
17053;DHT22;8643;48.824;11.422;2023-04-03T13:23:49;14.40;52.80
17053;DHT22;8643;48.824;11.422;2023-04-03T13:26:33;13.30;52.50
17053;DHT22;8643;48.824;11.422;2023-04-03T13:29:04;12.60;55.50
17053;DHT22;8643;48.824;11.422;2023-04-03T13:34:17;11.50;56.80
17053;DHT22;8643;48.824;11.422;2023-04-03T13:36:57;11.10;56.70
17053;DHT22;8643;48.824;11.422;2023-04-03T13:39:29;11.70;55.70
17053;DHT22;8643;48.824;11.422;2023-04-03T13:42:01;12.90;55.30
17053;DHT22;8643;48.824;11.422;2023-04-03T13:44:43;13.50;53.60
17053;DHT22;8643;48.824;11.422;2023-04-03T13:47:17;13.40;52.30
17053;DHT22;8643;48.824;11.422;2023-04-03T13:50:00;12.50;51.80
17053;DHT22;8643;48.824;11.422;2023-04-03T13:52:34;11.70;54.70
17053;DHT22;8643;48.824;11.422;2023-04-03T13:55:18;12.00;55.40
17053;DHT22;8643;48.824;11.422;2023-04-03T13:57:54;12.90;55.10
17053;DHT22;8643;48.824;11.422;2023-04-03T14:00:31;12.80;55.00
17053;DHT22;8643;48.824;11.422;2023-04-03T14:03:12;11.00;57.00
17053;DHT22;8643;48.824;11.422;2023-04-03T14:05:41;10.30;55.60
17053;DHT22;8643;48.824;11.422;2023-04-03T14:08:13;9.40;56.50
17053;DHT22;8643;48.824;11.422;2023-04-03T14:10:43;9.00;57.10
17053;DHT22;8643;48.824;11.422;2023-04-03T14:13:16;9.20;60.10
17053;DHT22;8643;48.824;11.422;2023-04-03T14:15:47;10.10;66.20
17053;DHT22;8643;48.824;11.422;2023-04-03T14:18:19;11.10;53.00
17053;DHT22;8643;48.824;11.422;2023-04-03T14:20:49;11.00;52.50
17053;DHT22;8643;48.824;11.422;2023-04-03T14:23:19;10.70;54.30
17053;DHT22;8643;48.824;11.422;2023-04-03T14:28:18;9.40;60.30
17053;DHT22;8643;48.824;11.422;2023-04-03T14:30:50;8.90;59.90
17053;DHT22;8643;48.824;11.422;2023-04-03T14:33:21;8.50;58.60
17053;DHT22;8643;48.824;11.422;2023-04-03T14:35:50;8.70;59.00
17053;DHT22;8643;48.824;11.422;2023-04-03T14:38:24;9.70;58.60
17053;DHT22;8643;48.824;11.422;2023-04-03T14:40:55;10.80;56.80
17053;DHT22;8643;48.824;11.422;2023-04-03T14:43:39;11.40;57.70
17053;DHT22;8643;48.824;11.422;2023-04-03T14:46:13;11.40;60.30
17053;DHT22;8643;48.824;11.422;2023-04-03T14:48:43;11.10;55.70
17053;DHT22;8643;48.824;11.422;2023-04-03T14:51:13;11.20;60.40
17053;DHT22;8643;48.824;11.422;2023-04-03T14:53:45;11.60;61.20
17053;DHT22;8643;48.824;11.422;2023-04-03T14:56:24;12.10;58.20
17053;DHT22;8643;48.824;11.422;2023-04-03T14:58:56;12.80;56.60
17053;DHT22;8643;48.824;11.422;2023-04-03T15:01:29;12.60;55.00
17053;DHT22;8643;48.824;11.422;2023-04-03T15:03:57;12.00;54.80
17053;DHT22;8643;48.824;11.422;2023-04-03T15:06:26;11.20;56.90
17053;DHT22;8643;48.824;11.422;2023-04-03T15:08:55;11.30;56.60
17053;DHT22;8643;48.824;11.422;2023-04-03T15:11:24;11.40;60.40
17053;DHT22;8643;48.824;11.422;2023-04-03T15:13:53;10.90;60.10
17053;DHT22;8643;48.824;11.422;2023-04-03T15:16:22;9.70;59.70
17053;DHT22;8643;48.824;11.422;2023-04-03T15:18:50;8.80;62.60
17053;DHT22;8643;48.824;11.422;2023-04-03T15:21:19;8.30;63.70
17053;DHT22;8643;48.824;11.422;2023-04-03T15:23:47;8.10;62.50
17053;DHT22;8643;48.824;11.422;2023-04-03T15:26:17;8.80;61.90
17053;DHT22;8643;48.824;11.422;2023-04-03T15:28:45;9.30;63.50
17053;DHT22;8643;48.824;11.422;2023-04-03T15:31:14;10.00;59.90
17053;DHT22;8643;48.824;11.422;2023-04-03T15:33:42;10.90;58.10
17053;DHT22;8643;48.824;11.422;2023-04-03T15:36:11;11.60;57.00
17053;DHT22;8643;48.824;11.422;2023-04-03T15:38:59;12.10;52.90
17053;DHT22;8643;48.824;11.422;2023-04-03T15:41:29;11.90;54.30
17053;DHT22;8643;48.824;11.422;2023-04-03T15:43:57;11.40;56.30
17053;DHT22;8643;48.824;11.422;2023-04-03T15:46:26;11.00;56.30
17053;DHT22;8643;48.824;11.422;2023-04-03T15:48:54;10.40;64.30
17053;DHT22;8643;48.824;11.422;2023-04-03T15:56:20;8.10;67.50
17053;DHT22;8643;48.824;11.422;2023-04-03T15:58:50;8.10;67.30
17053;DHT22;8643;48.824;11.422;2023-04-03T16:01:18;8.60;68.00
17053;DHT22;8643;48.824;11.422;2023-04-03T16:03:47;9.20;63.10
17053;DHT22;8643;48.824;11.422;2023-04-03T16:06:17;9.90;63.90
17053;DHT22;8643;48.824;11.422;2023-04-03T16:08:46;10.10;62.50
17053;DHT22;8643;48.824;11.422;2023-04-03T16:13:45;10.10;61.40
17053;DHT22;8643;48.824;11.422;2023-04-03T16:16:15;9.80;62.60
17053;DHT22;8643;48.824;11.422;2023-04-03T16:18:44;9.60;61.10
17053;DHT22;8643;48.824;11.422;2023-04-03T16:21:15;10.50;62.70
17053;DHT22;8643;48.824;11.422;2023-04-03T16:23:44;9.00;63.20
17053;DHT22;8643;48.824;11.422;2023-04-03T16:26:13;8.50;66.80
17053;DHT22;8643;48.824;11.422;2023-04-03T16:28:44;7.80;67.40
17053;DHT22;8643;48.824;11.422;2023-04-03T16:31:12;7.10;72.00
17053;DHT22;8643;48.824;11.422;2023-04-03T16:33:42;6.40;73.80
17053;DHT22;8643;48.824;11.422;2023-04-03T16:36:11;6.10;74.40
17053;DHT22;8643;48.824;11.422;2023-04-03T16:41:08;5.80;73.90
17053;DHT22;8643;48.824;11.422;2023-04-03T16:43:36;5.80;74.10
17053;DHT22;8643;48.824;11.422;2023-04-03T16:46:05;5.80;73.20
17053;DHT22;8643;48.824;11.422;2023-04-03T16:48:33;5.90;74.70
17053;DHT22;8643;48.824;11.422;2023-04-03T16:51:04;5.80;73.40
17053;DHT22;8643;48.824;11.422;2023-04-03T16:53:32;5.70;75.80
17053;DHT22;8643;48.824;11.422;2023-04-03T16:56:00;5.50;73.70
17053;DHT22;8643;48.824;11.422;2023-04-03T16:58:29;5.20;73.90
17053;DHT22;8643;48.824;11.422;2023-04-03T17:00:57;5.10;76.60
17053;DHT22;8643;48.824;11.422;2023-04-03T17:03:26;4.90;77.90
17053;DHT22;8643;48.824;11.422;2023-04-03T17:05:54;4.70;78.40
17053;DHT22;8643;48.824;11.422;2023-04-03T17:08:24;4.60;78.20
17053;DHT22;8643;48.824;11.422;2023-04-03T17:10:53;4.50;81.40
17053;DHT22;8643;48.824;11.422;2023-04-03T17:13:21;4.30;83.10
17053;DHT22;8643;48.824;11.422;2023-04-03T17:15:50;4.20;81.90
17053;DHT22;8643;48.824;11.422;2023-04-03T17:18:19;4.10;83.00
17053;DHT22;8643;48.824;11.422;2023-04-03T17:20:48;4.00;84.00
17053;DHT22;8643;48.824;11.422;2023-04-03T17:23:16;3.90;85.50
17053;DHT22;8643;48.824;11.422;2023-04-03T17:25:46;2.80;88.50
17053;DHT22;8643;48.824;11.422;2023-04-03T17:28:14;3.70;89.40
17053;DHT22;8643;48.824;11.422;2023-04-03T17:30:42;3.70;91.90
17053;DHT22;8643;48.824;11.422;2023-04-03T17:35:39;3.70;92.70
17053;DHT22;8643;48.824;11.422;2023-04-03T17:38:08;3.60;89.00
17053;DHT22;8643;48.824;11.422;2023-04-03T17:40:36;3.60;91.50
17053;DHT22;8643;48.824;11.422;2023-04-03T17:43:06;3.60;88.90
17053;DHT22;8643;48.824;11.422;2023-04-03T17:45:34;3.50;90.00
17053;DHT22;8643;48.824;11.422;2023-04-03T17:48:03;3.50;91.00
17053;DHT22;8643;48.824;11.422;2023-04-03T17:50:32;3.40;92.60
17053;DHT22;8643;48.824;11.422;2023-04-03T17:53:00;3.30;92.50
17053;DHT22;8643;48.824;11.422;2023-04-03T17:57:57;3.20;94.40